Time;durP1;ratioP1;P1;durP2;ratioP2;P2;SDS_P1;SDS_P2;PMS_P1;PMS_P2;Temp;Humidity;BMP_temperature;BMP_pressure;BME280_temperature;BME280_humidity;BME280_pressure;Samples;Min_cycle;Max_cycle;Signal;HPM_P1;HPM_P2
2020/12/21 00:01:48;;;;;;;9.88;3.10;;;6.70;99.90;;;;;;5022817;28;20050;-71
2020/12/21 00:04:15;;;;;;;8.63;3.28;;;6.70;99.90;;;;;;5020845;28;20386;-69
2020/12/21 00:06:42;;;;;;;8.30;2.83;;;6.70;99.90;;;;;;5023137;28;20108;-69
2020/12/21 00:09:08;;;;;;;6.55;3.15;;;6.70;99.90;;;;;;5027551;28;20448;-69
2020/12/21 00:11:37;;;;;;;8.50;2.70;;;6.70;99.90;;;;;;5029134;28;20155;-69
2020/12/21 00:14:05;;;;;;;7.67;2.80;;;6.70;99.90;;;;;;5018541;28;20084;-69
2020/12/21 00:16:46;;;;;;;5.57;2.58;;;6.80;99.90;;;;;;5022583;28;20566;-68
2020/12/21 00:19:13;;;;;;;6.22;2.65;;;6.70;99.90;;;;;;5022549;28;20061;-68
2020/12/21 00:21:41;;;;;;;5.65;2.92;;;6.70;99.90;;;;;;5025332;28;20076;-69
2020/12/21 00:24:08;;;;;;;8.15;2.58;;;6.70;99.90;;;;;;5026303;28;20053;-69
2020/12/21 00:26:34;;;;;;;6.32;2.47;;;6.80;99.90;;;;;;5017403;28;20046;-69
2020/12/21 00:29:02;;;;;;;6.93;2.88;;;6.70;99.90;;;;;;5020575;28;20093;-69
2020/12/21 00:31:31;;;;;;;5.75;2.70;;;6.70;99.90;;;;;;5019359;28;20050;-69
2020/12/21 00:33:59;;;;;;;8.23;2.90;;;6.70;99.90;;;;;;5022787;28;20075;-69
2020/12/21 00:36:26;;;;;;;6.35;2.20;;;6.70;99.90;;;;;;5026773;28;20056;-68
2020/12/21 00:38:55;;;;;;;5.68;2.33;;;6.70;99.90;;;;;;5022022;28;20471;-69
2020/12/21 00:41:23;;;;;;;6.97;3.42;;;6.60;99.90;;;;;;5029372;28;20046;-69
2020/12/21 00:43:51;;;;;;;7.38;2.60;;;6.60;99.90;;;;;;5022981;28;20057;-69
2020/12/21 00:46:26;;;;;;;7.53;2.38;;;6.60;99.90;;;;;;5029524;28;20049;-69
2020/12/21 00:48:55;;;;;;;7.05;2.97;;;6.60;99.90;;;;;;5031843;28;20466;-69
2020/12/21 00:51:22;;;;;;;6.30;2.85;;;6.60;99.90;;;;;;5021873;28;20104;-69
2020/12/21 00:53:49;;;;;;;7.07;2.78;;;6.60;99.90;;;;;;5015363;28;20135;-69
2020/12/21 00:56:17;;;;;;;9.93;2.70;;;6.60;99.90;;;;;;5024780;28;20053;-69
2020/12/21 00:58:45;;;;;;;6.25;2.45;;;6.60;99.90;;;;;;5019823;28;20057;-69
2020/12/21 01:01:14;;;;;;;9.75;2.78;;;6.60;99.90;;;;;;5028887;28;20534;-69
2020/12/21 01:03:54;;;;;;;8.20;2.58;;;6.60;99.90;;;;;;5019347;28;20164;-69
2020/12/21 01:06:21;;;;;;;7.75;2.50;;;6.60;99.90;;;;;;5021001;28;20046;-69
2020/12/21 01:08:58;;;;;;;5.70;2.55;;;6.50;99.90;;;;;;5020504;28;20049;-69
2020/12/21 01:11:28;;;;;;;6.30;2.75;;;6.50;99.90;;;;;;5028404;28;20072;-68
2020/12/21 01:13:55;;;;;;;9.10;2.90;;;6.50;99.90;;;;;;5020618;28;20053;-68
2020/12/21 01:16:22;;;;;;;8.20;3.08;;;6.50;99.90;;;;;;5028368;28;20385;-68
2020/12/21 01:18:50;;;;;;;8.45;2.83;;;6.50;99.90;;;;;;5024041;28;20057;-68
2020/12/21 01:21:28;;;;;;;6.90;2.20;;;6.50;99.90;;;;;;5029360;28;20052;-69
2020/12/21 01:23:59;;;;;;;10.13;3.50;;;6.50;99.90;;;;;;5022886;28;20103;-69
2020/12/21 01:26:27;;;;;;;6.78;2.72;;;6.50;99.90;;;;;;5031233;28;20046;-69
2020/12/21 01:28:53;;;;;;;6.93;2.72;;;6.40;99.90;;;;;;5023069;28;20543;-69
2020/12/21 01:31:21;;;;;;;8.25;2.83;;;6.40;99.90;;;;;;5032430;28;20053;-69
2020/12/21 01:33:48;;;;;;;6.43;2.90;;;6.40;99.90;;;;;;5021740;28;20587;-68
2020/12/21 01:36:17;;;;;;;5.45;3.10;;;6.40;99.90;;;;;;5030105;28;20057;-69
2020/12/21 01:38:44;;;;;;;6.45;2.90;;;6.40;99.90;;;;;;5024084;28;20061;-69
2020/12/21 01:41:11;;;;;;;7.07;2.75;;;6.40;99.90;;;;;;5031130;28;20052;-69
2020/12/21 01:43:38;;;;;;;6.32;3.13;;;6.40;99.90;;;;;;5021848;28;20589;-69
2020/12/21 01:46:14;;;;;;;9.02;3.58;;;6.40;99.90;;;;;;5028369;28;20108;-68
2020/12/21 01:48:43;;;;;;;8.05;2.70;;;6.40;99.90;;;;;;5019276;28;20159;-68
2020/12/21 01:51:25;;;;;;;6.57;3.30;;;6.40;99.90;;;;;;5032304;28;20420;-69
2020/12/21 01:53:52;;;;;;;7.00;2.83;;;6.30;99.90;;;;;;5019116;28;20104;-69
2020/12/21 01:56:19;;;;;;;6.45;3.38;;;6.40;99.90;;;;;;5025568;28;20060;-69
2020/12/21 01:58:47;;;;;;;8.02;3.00;;;6.40;99.90;;;;;;5020987;28;20054;-69
2020/12/21 02:01:16;;;;;;;5.15;2.50;;;6.30;99.90;;;;;;5024477;28;20091;-69
2020/12/21 02:03:42;;;;;;;;;;;6.40;99.90;;;;;;5019247;28;20053;-69
2020/12/21 02:06:10;;;;;;;3.88;2.20;;;6.30;99.90;;;;;;5028456;28;19925;-69
2020/12/21 02:08:37;;;;;;;6.38;2.83;;;6.30;99.90;;;;;;5029409;28;20115;-68
2020/12/21 02:11:04;;;;;;;6.13;2.63;;;6.30;99.90;;;;;;5023585;28;20050;-69
2020/12/21 02:13:32;;;;;;;8.13;2.60;;;6.30;99.90;;;;;;5039696;28;20148;-69
2020/12/21 02:16:00;;;;;;;6.25;2.42;;;6.30;99.90;;;;;;5024087;28;20554;-69
2020/12/21 02:18:27;;;;;;;6.72;2.60;;;6.30;99.90;;;;;;5023029;28;20050;-68
2020/12/21 02:20:54;;;;;;;5.05;2.42;;;6.30;99.90;;;;;;5012529;28;20045;-67
2020/12/21 02:23:20;;;;;;;6.18;2.55;;;6.30;99.90;;;;;;5026736;28;20468;-71
2020/12/21 02:25:47;;;;;;;4.97;2.42;;;6.20;99.90;;;;;;5028396;28;20045;-68
2020/12/21 02:28:13;;;;;;;4.60;2.05;;;6.20;99.90;;;;;;5027126;28;20149;-70
2020/12/21 02:30:41;;;;;;;4.65;2.45;;;6.20;99.90;;;;;;5017466;28;20058;-68
2020/12/21 02:33:07;;;;;;;7.03;2.45;;;6.20;99.90;;;;;;5025807;28;20054;-69
2020/12/21 02:35:35;;;;;;;7.32;2.80;;;6.20;99.90;;;;;;5038102;28;20057;-68
2020/12/21 02:38:09;;;;;;;6.93;2.63;;;6.30;99.90;;;;;;5021459;28;20759;-71
2020/12/21 02:40:40;;;;;;;3.58;2.08;;;6.30;99.90;;;;;;5029939;28;20061;-68
2020/12/21 02:43:22;;;;;;;6.60;2.90;;;6.20;99.90;;;;;;5033021;28;20077;-68
2020/12/21 02:45:49;;;;;;;7.70;2.53;;;6.20;99.90;;;;;;5027818;28;20066;-68
2020/12/21 02:48:16;;;;;;;7.85;2.90;;;6.20;99.90;;;;;;5022338;28;20046;-67
2020/12/21 02:50:43;;;;;;;7.43;2.85;;;6.20;99.90;;;;;;5026749;28;20127;-68
2020/12/21 02:53:11;;;;;;;7.03;3.05;;;6.20;99.90;;;;;;5023081;28;20092;-68
2020/12/21 02:55:38;;;;;;;10.75;3.63;;;6.20;99.90;;;;;;5021004;28;20477;-68
2020/12/21 02:58:04;;;;;;;6.43;3.40;;;6.20;99.90;;;;;;5022929;28;20196;-68
2020/12/21 03:00:33;;;;;;;8.02;3.42;;;6.20;99.90;;;;;;5017042;28;20062;-68
2020/12/21 03:03:01;;;;;;;6.07;3.05;;;6.20;99.90;;;;;;5022026;28;20053;-67
2020/12/21 03:05:30;;;;;;;6.75;3.03;;;6.10;99.90;;;;;;5023892;28;20046;-68
2020/12/21 03:07:57;;;;;;;8.32;3.45;;;6.20;99.90;;;;;;5026466;28;20408;-68
2020/12/21 03:10:23;;;;;;;4.75;2.70;;;6.10;99.90;;;;;;5016739;28;20046;-68
2020/12/21 03:12:50;;;;;;;6.15;2.80;;;6.10;99.90;;;;;;5025461;28;20496;-67
2020/12/21 03:15:16;;;;;;;6.78;3.00;;;6.10;99.90;;;;;;5019576;28;20050;-67
2020/12/21 03:17:43;;;;;;;8.27;3.60;;;6.10;99.90;;;;;;5020034;28;20112;-68
2020/12/21 03:20:09;;;;;;;6.13;2.42;;;6.10;99.90;;;;;;5020603;28;20408;-68
2020/12/21 03:22:36;;;;;;;7.40;2.97;;;6.00;99.90;;;;;;5021080;28;20054;-68
2020/12/21 03:25:05;;;;;;;7.05;3.17;;;6.00;99.90;;;;;;5030134;28;20045;-68
2020/12/21 03:27:32;;;;;;;5.47;2.53;;;6.00;99.90;;;;;;5023114;28;20076;-67
2020/12/21 03:29:59;;;;;;;7.50;2.92;;;6.00;99.90;;;;;;5027859;28;20112;-67
2020/12/21 03:32:25;;;;;;;5.90;2.45;;;6.00;99.90;;;;;;5027454;28;20445;-68
2020/12/21 03:34:52;;;;;;;5.78;3.03;;;6.00;99.90;;;;;;5016481;28;20100;-67
2020/12/21 03:37:19;;;;;;;4.57;2.25;;;6.00;99.90;;;;;;5022683;28;20042;-67
2020/12/21 03:39:45;;;;;;;5.00;2.47;;;6.00;99.90;;;;;;5022944;28;20441;-67
2020/12/21 03:42:11;;;;;;;3.78;1.83;;;6.00;99.90;;;;;;5012249;28;20038;-68
2020/12/21 03:44:38;;;;;;;5.93;2.40;;;6.00;99.90;;;;;;5019945;28;20455;-67
2020/12/21 03:47:04;;;;;;;7.43;2.70;;;5.90;99.90;;;;;;5028726;28;20053;-67
2020/12/21 03:49:31;;;;;;;7.70;2.80;;;5.90;99.90;;;;;;5026257;28;20056;-67
2020/12/21 03:51:57;;;;;;;8.80;2.65;;;5.90;99.90;;;;;;5024280;28;20107;-67
2020/12/21 03:54:24;;;;;;;5.07;2.10;;;5.90;99.90;;;;;;5039722;28;20061;-67
2020/12/21 03:56:51;;;;;;;3.63;1.90;;;5.90;99.90;;;;;;5028924;28;20115;-68
2020/12/21 03:59:17;;;;;;;6.45;2.20;;;5.90;99.90;;;;;;5022776;28;20473;-68
2020/12/21 04:01:44;;;;;;;8.27;2.80;;;5.90;99.90;;;;;;5020515;28;20498;-68
2020/12/21 04:04:11;;;;;;;5.85;2.42;;;5.90;99.90;;;;;;5024002;28;20045;-68
2020/12/21 04:06:39;;;;;;;4.85;2.20;;;5.80;99.90;;;;;;5028400;28;20041;-68
2020/12/21 04:09:06;;;;;;;3.28;1.85;;;5.90;99.90;;;;;;5027298;28;20404;-67
2020/12/21 04:11:32;;;;;;;4.22;1.80;;;5.80;99.90;;;;;;5026438;28;20095;-68
2020/12/21 04:13:59;;;;;;;5.10;1.85;;;5.80;99.90;;;;;;5015242;28;20050;-68
2020/12/21 04:16:25;;;;;;;6.72;2.42;;;5.80;99.90;;;;;;5026234;28;20053;-68
2020/12/21 04:18:52;;;;;;;5.22;2.83;;;5.80;99.90;;;;;;5021153;28;20127;-68
2020/12/21 04:21:18;;;;;;;7.13;2.25;;;5.80;99.90;;;;;;5027137;28;20049;-67
2020/12/21 04:23:45;;;;;;;4.95;2.10;;;5.80;99.90;;;;;;5021595;28;20050;-68
2020/12/21 04:26:11;;;;;;;7.10;2.55;;;5.80;99.90;;;;;;5022263;28;20068;-68
2020/12/21 04:28:39;;;;;;;6.93;2.40;;;5.80;99.90;;;;;;5023628;28;20258;-68
2020/12/21 04:31:07;;;;;;;10.27;2.60;;;5.80;99.90;;;;;;5019724;28;20053;-67
2020/12/21 04:33:34;;;;;;;6.35;2.63;;;5.80;99.90;;;;;;5026884;28;20413;-68
2020/12/21 04:36:14;;;;;;;4.47;1.88;;;5.80;99.90;;;;;;5027199;28;20064;-68
2020/12/21 04:38:42;;;;;;;4.78;2.00;;;5.80;99.90;;;;;;5022103;28;20459;-68
2020/12/21 04:41:10;;;;;;;3.92;2.13;;;5.80;99.90;;;;;;5019006;28;20142;-68
2020/12/21 04:43:38;;;;;;;3.38;1.98;;;5.80;99.90;;;;;;5021916;28;20049;-68
2020/12/21 04:46:07;;;;;;;2.58;2.00;;;5.80;99.90;;;;;;5022230;28;20053;-68
2020/12/21 04:48:39;;;;;;;5.15;2.40;;;5.80;99.90;;;;;;5026545;28;20042;-68
2020/12/21 04:51:06;;;;;;;4.78;2.17;;;5.80;99.90;;;;;;5028823;28;20084;-68
2020/12/21 04:53:34;;;;;;;5.30;2.20;;;5.80;99.90;;;;;;5025046;28;20041;-68
2020/12/21 04:56:01;;;;;;;3.72;2.25;;;5.80;99.90;;;;;;5019661;28;20050;-68
2020/12/21 04:58:28;;;;;;;5.70;2.40;;;5.80;99.90;;;;;;5025801;28;20366;-68
2020/12/21 05:00:55;;;;;;;5.10;2.45;;;5.80;99.90;;;;;;5025826;28;20053;-68
2020/12/21 05:03:21;;;;;;;4.13;1.95;;;5.80;99.90;;;;;;5021115;28;20485;-68
2020/12/21 05:05:48;;;;;;;5.28;2.10;;;5.80;99.90;;;;;;5027707;28;20096;-67
2020/12/21 05:08:25;;;;;;;4.82;2.17;;;5.70;99.90;;;;;;5029483;28;20053;-67
2020/12/21 05:10:59;;;;;;;3.80;1.92;;;5.70;99.90;;;;;;5022049;28;20111;-68
2020/12/21 05:13:27;;;;;;;3.50;2.00;;;5.80;99.90;;;;;;5022694;28;20053;-68
2020/12/21 05:15:55;;;;;;;8.27;2.10;;;5.80;99.90;;;;;;5019601;28;20135;-68
2020/12/21 05:18:30;;;;;;;4.40;2.00;;;5.80;99.90;;;;;;5025372;28;20061;-68
2020/12/21 05:21:00;;;;;;;3.55;2.00;;;5.80;99.90;;;;;;5020274;28;20046;-68
2020/12/21 05:23:28;;;;;;;2.97;1.60;;;5.80;99.90;;;;;;5025604;28;20048;-68
2020/12/21 05:26:06;;;;;;;6.10;2.25;;;5.80;99.90;;;;;;5028359;28;20607;-71
2020/12/21 05:28:35;;;;;;;4.97;2.50;;;5.80;99.90;;;;;;5026924;28;20041;-71
2020/12/21 05:31:04;;;;;;;4.45;2.10;;;5.80;99.90;;;;;;5015903;28;20075;-71
2020/12/21 05:33:31;;;;;;;5.28;2.28;;;5.80;99.90;;;;;;5019515;28;20470;-71
2020/12/21 05:36:10;;;;;;;5.18;2.10;;;5.80;99.90;;;;;;5032929;28;20049;-71
2020/12/21 05:38:38;;;;;;;3.97;2.00;;;5.80;99.90;;;;;;5026531;28;20053;-70
2020/12/21 05:41:12;;;;;;;7.90;2.53;;;5.80;99.90;;;;;;5026094;28;20046;-70
2020/12/21 05:43:39;;;;;;;8.77;2.88;;;5.80;99.90;;;;;;5020248;28;20057;-71
2020/12/21 05:46:17;;;;;;;6.05;2.40;;;5.80;99.90;;;;;;5032900;28;20058;-70
2020/12/21 05:48:46;;;;;;;6.03;2.22;;;5.70;99.90;;;;;;5027011;28;20100;-70
2020/12/21 05:51:38;;;;;;;5.65;2.25;;;5.70;99.90;;;;;;5029000;28;20054;-71
2020/12/21 05:54:07;;;;;;;10.32;2.67;;;5.80;99.90;;;;;;5028142;28;20053;-70
2020/12/21 05:56:36;;;;;;;4.75;1.90;;;5.80;99.90;;;;;;5027821;28;20050;-71
2020/12/21 05:59:04;;;;;;;10.93;3.50;;;5.70;99.90;;;;;;5026451;28;20084;-70
2020/12/21 06:01:31;;;;;;;6.68;2.17;;;5.80;99.90;;;;;;5025944;28;20053;-70
2020/12/21 06:04:02;;;;;;;6.15;2.47;;;5.70;99.90;;;;;;5028213;28;20077;-71
2020/12/21 06:06:31;;;;;;;7.63;2.35;;;5.70;99.90;;;;;;5028889;28;20037;-71
2020/12/21 06:09:00;;;;;;;5.90;2.27;;;5.70;99.90;;;;;;5028124;28;20107;-71
2020/12/21 06:11:27;;;;;;;4.97;2.08;;;5.80;99.90;;;;;;5028862;28;20050;-71
2020/12/21 06:13:56;;;;;;;7.07;2.63;;;5.70;99.90;;;;;;5029131;28;20057;-71
2020/12/21 06:16:25;;;;;;;5.25;1.90;;;5.70;99.90;;;;;;5022037;28;20046;-71
2020/12/21 06:18:59;;;;;;;4.78;2.33;;;5.80;99.90;;;;;;5023692;28;20107;-71
2020/12/21 06:21:30;;;;;;;5.55;2.25;;;5.80;99.90;;;;;;5029097;28;20489;-71
2020/12/21 06:23:57;;;;;;;3.80;1.90;;;5.80;99.90;;;;;;5021503;28;20104;-71
2020/12/21 06:26:37;;;;;;;8.15;2.80;;;5.80;99.90;;;;;;5021880;28;20148;-71
2020/12/21 06:29:14;;;;;;;6.72;2.85;;;5.80;99.90;;;;;;5022235;28;20100;-71
2020/12/21 06:31:42;;;;;;;4.13;2.10;;;5.80;99.90;;;;;;5017859;28;20064;-71
2020/12/21 06:34:14;;;;;;;6.18;2.50;;;5.80;99.90;;;;;;5024832;28;20113;-71
2020/12/21 06:36:43;;;;;;;5.95;2.40;;;5.70;99.90;;;;;;5026591;28;20721;-71
2020/12/21 06:39:10;;;;;;;9.15;3.13;;;5.80;99.90;;;;;;5020622;28;20053;-71
2020/12/21 06:41:36;;;;;;;4.80;1.77;;;5.80;99.90;;;;;;5027706;28;20093;-70
2020/12/21 06:44:09;;;;;;;11.93;3.13;;;5.80;99.90;;;;;;5028319;28;20136;-71
2020/12/21 06:46:36;;;;;;;6.00;2.80;;;5.70;99.90;;;;;;5017436;28;20123;-71
2020/12/21 06:49:13;;;;;;;5.20;2.72;;;5.70;99.90;;;;;;5028264;28;20041;-71
2020/12/21 06:51:48;;;;;;;5.00;2.38;;;5.70;99.90;;;;;;5026591;28;20049;-71
2020/12/21 06:54:16;;;;;;;6.00;2.60;;;5.70;99.90;;;;;;5020175;28;20493;-71
2020/12/21 06:56:45;;;;;;;6.15;2.35;;;5.70;99.90;;;;;;5020855;28;20060;-71
2020/12/21 06:59:22;;;;;;;6.88;2.92;;;5.70;99.90;;;;;;5021515;28;20058;-68
2020/12/21 07:01:53;;;;;;;6.82;2.47;;;5.70;99.90;;;;;;5026900;28;20107;-68
2020/12/21 07:04:25;;;;;;;6.10;2.45;;;5.70;99.90;;;;;;5023061;28;20100;-69
2020/12/21 07:06:52;;;;;;;6.18;2.30;;;5.80;99.90;;;;;;5017797;28;20053;-69
2020/12/21 07:09:36;;;;;;;4.82;2.25;;;5.80;99.90;;;;;;5025594;28;20157;-69
2020/12/21 07:12:07;;;;;;;4.85;2.10;;;5.80;99.90;;;;;;5019233;28;20054;-69
2020/12/21 07:14:42;;;;;;;7.05;2.50;;;5.80;99.90;;;;;;5009576;28;20137;-69
2020/12/21 07:17:11;;;;;;;8.43;2.85;;;5.80;99.90;;;;;;5012273;28;20061;-69
2020/12/21 07:19:42;;;;;;;5.45;2.28;;;5.90;99.90;;;;;;5027347;28;20049;-69
2020/12/21 07:22:11;;;;;;;5.15;2.60;;;5.90;99.90;;;;;;5012226;28;20077;-69
2020/12/21 07:24:40;;;;;;;5.70;2.10;;;5.90;99.90;;;;;;5013285;28;20547;-69
2020/12/21 07:27:07;;;;;;;5.80;2.58;;;5.90;99.90;;;;;;5006825;28;20360;-69
2020/12/21 07:29:38;;;;;;;4.35;2.50;;;5.90;99.90;;;;;;5007577;28;20508;-69
2020/12/21 07:32:05;;;;;;;8.85;2.22;;;5.90;99.90;;;;;;5009513;28;20053;-68
2020/12/21 07:34:32;;;;;;;9.27;2.60;;;6.00;99.90;;;;;;5011237;28;20061;-68
2020/12/21 07:36:59;;;;;;;4.60;1.92;;;6.00;99.90;;;;;;5013304;28;20060;-69
2020/12/21 07:39:25;;;;;;;4.20;1.92;;;6.00;99.90;;;;;;5009488;28;20049;-68
2020/12/21 07:41:55;;;;;;;4.93;2.42;;;6.00;99.90;;;;;;5030277;28;20103;-68
2020/12/21 07:44:35;;;;;;;8.00;1.90;;;6.00;99.90;;;;;;5009849;28;20045;-68
2020/12/21 07:47:13;;;;;;;5.35;2.50;;;6.10;99.90;;;;;;5007427;28;20432;-68
2020/12/21 07:49:42;;;;;;;5.28;2.55;;;6.10;99.90;;;;;;5006660;28;20370;-68
2020/12/21 07:52:10;;;;;;;5.75;2.50;;;6.10;99.90;;;;;;5010057;28;20049;-68
2020/12/21 07:54:38;;;;;;;7.13;2.28;;;6.20;99.90;;;;;;5011804;28;20377;-68
2020/12/21 07:57:09;;;;;;;5.13;2.22;;;6.20;99.90;;;;;;5013271;28;20057;-68
2020/12/21 07:59:36;;;;;;;6.18;2.15;;;6.20;99.90;;;;;;5002683;28;20054;-68
2020/12/21 08:02:05;;;;;;;6.85;2.35;;;6.30;99.90;;;;;;5011410;28;20049;-68
2020/12/21 08:04:31;;;;;;;5.97;2.03;;;6.30;99.90;;;;;;5010598;28;20057;-69
2020/12/21 08:07:11;;;;;;;7.85;2.85;;;6.30;99.90;;;;;;5013104;28;20489;-69
2020/12/21 08:09:39;;;;;;;4.50;2.35;;;6.30;99.90;;;;;;5009980;28;20049;-69
2020/12/21 08:12:09;;;;;;;5.22;2.15;;;6.30;99.90;;;;;;5010824;28;20053;-69
2020/12/21 08:14:36;;;;;;;4.35;2.13;;;6.40;99.90;;;;;;5031655;28;20176;-68
2020/12/21 08:17:13;;;;;;;5.18;1.90;;;6.40;99.90;;;;;;5045641;28;20476;-68
2020/12/21 08:19:58;;;;;;;4.03;2.30;;;6.40;99.90;;;;;;5030474;28;20046;-69
2020/12/21 08:22:26;;;;;;;3.88;1.98;;;6.40;99.90;;;;;;5019432;28;21628;-68
2020/12/21 08:25:10;;;;;;;4.72;2.17;;;6.50;99.90;;;;;;5017565;28;20485;-68
2020/12/21 08:27:42;;;;;;;4.88;2.38;;;6.50;99.90;;;;;;5034057;28;20042;-69
2020/12/21 08:30:14;;;;;;;4.53;1.95;;;6.50;99.90;;;;;;5023468;28;20050;-68
2020/12/21 08:32:41;;;;;;;6.15;2.50;;;6.60;99.90;;;;;;5028238;28;20079;-69
2020/12/21 08:35:11;;;;;;;5.75;2.40;;;6.60;99.90;;;;;;5027384;28;20071;-68
2020/12/21 08:37:38;;;;;;;6.82;2.47;;;6.60;99.90;;;;;;5015700;28;20065;-68
2020/12/21 08:40:15;;;;;;;8.55;2.58;;;6.60;99.90;;;;;;5031890;28;20099;-68
2020/12/21 08:42:43;;;;;;;7.15;2.67;;;6.60;99.90;;;;;;5025870;28;20050;-68
2020/12/21 08:45:21;;;;;;;4.97;2.60;;;6.70;99.90;;;;;;5045086;28;20053;-68
2020/12/21 08:47:49;;;;;;;8.17;2.60;;;6.70;99.90;;;;;;5029786;28;20077;-67
2020/12/21 08:50:15;;;;;;;6.15;2.67;;;6.70;99.90;;;;;;5023500;28;20045;-68
2020/12/21 08:52:42;;;;;;;5.57;2.50;;;6.70;99.90;;;;;;5022068;28;20054;-68
2020/12/21 08:55:10;;;;;;;7.72;2.67;;;6.80;99.90;;;;;;5023477;28;20080;-68
2020/12/21 08:57:42;;;;;;;6.35;2.50;;;6.80;99.90;;;;;;5019934;28;20050;-68
2020/12/21 09:00:08;;;;;;;6.97;2.50;;;6.80;99.90;;;;;;5024256;28;20056;-68
2020/12/21 09:02:35;;;;;;;7.07;2.60;;;6.90;99.90;;;;;;5023668;28;20404;-69
2020/12/21 09:05:05;;;;;;;6.70;2.70;;;6.90;99.90;;;;;;5043524;28;20049;-69
2020/12/21 09:07:35;;;;;;;8.05;2.50;;;7.00;99.90;;;;;;5021642;28;20140;-68
2020/12/21 09:10:05;;;;;;;7.75;2.90;;;7.00;99.90;;;;;;5023308;28;20417;-69
2020/12/21 09:12:33;;;;;;;7.93;2.40;;;7.00;99.90;;;;;;5020078;28;20064;-68
2020/12/21 09:14:59;;;;;;;4.97;2.35;;;7.10;99.90;;;;;;5023109;28;20475;-69
2020/12/21 09:17:26;;;;;;;6.95;2.63;;;7.10;99.90;;;;;;5019975;28;20062;-69
2020/12/21 09:19:52;;;;;;;5.78;2.30;;;7.10;99.90;;;;;;5024206;28;20124;-68
2020/12/21 09:22:18;;;;;;;4.35;2.30;;;7.20;99.90;;;;;;5035923;28;20061;-69
2020/12/21 09:24:45;;;;;;;3.70;2.15;;;7.20;99.90;;;;;;5029165;28;20106;-69
2020/12/21 09:27:11;;;;;;;5.35;2.22;;;7.20;99.90;;;;;;5025652;28;20469;-68
2020/12/21 09:29:38;;;;;;;5.47;2.95;;;7.30;99.90;;;;;;5019016;28;20058;-69
2020/12/21 09:32:05;;;;;;;5.88;2.72;;;7.30;99.90;;;;;;5025826;28;20417;-69
2020/12/21 09:34:32;;;;;;;6.45;2.75;;;7.30;99.90;;;;;;5034842;28;20045;-68
2020/12/21 09:36:58;;;;;;;7.40;2.58;;;7.30;99.90;;;;;;5030577;28;20481;-69
2020/12/21 09:39:25;;;;;;;8.80;2.40;;;7.40;99.90;;;;;;5038658;28;20045;-68
2020/12/21 09:41:52;;;;;;;5.30;3.00;;;7.40;99.90;;;;;;5030748;28;20147;-69
2020/12/21 09:44:20;;;;;;;7.32;2.55;;;7.40;99.90;;;;;;5020729;28;20042;-69
2020/12/21 09:46:49;;;;;;;5.78;2.83;;;7.50;99.90;;;;;;5028146;28;20037;-69
2020/12/21 09:49:15;;;;;;;;;;;7.50;99.90;;;;;;5024290;28;20145;-69
2020/12/21 09:51:41;;;;;;;;;;;7.50;99.90;;;;;;5029211;28;20454;-69
2020/12/21 09:54:07;;;;;;;;;;;7.50;99.90;;;;;;5022263;28;19925;-68
2020/12/21 09:56:35;;;;;;;;;;;7.50;99.90;;;;;;5026765;28;20424;-68
2020/12/21 09:59:01;;;;;;;;;;;7.50;99.90;;;;;;5022948;28;20008;-68
2020/12/21 10:01:28;;;;;;;;;;;7.60;99.90;;;;;;5024008;28;19932;-67
2020/12/21 10:03:58;;;;;;;;;;;7.60;99.90;;;;;;5023163;28;19956;-68
2020/12/21 10:06:25;;;;;;;;;;;7.60;99.90;;;;;;5028682;28;20020;-67
2020/12/21 10:08:51;;;;;;;;;;;7.60;99.90;;;;;;5024284;28;19929;-67
2020/12/21 10:11:18;;;;;;;;;;;7.60;99.90;;;;;;5027110;28;19972;-68
2020/12/21 10:13:44;;;;;;;;;;;7.70;99.90;;;;;;5021815;28;20734;-68
2020/12/21 10:16:11;;;;;;;;;;;7.70;99.90;;;;;;5032255;28;19983;-67
2020/12/21 10:18:37;;;;;;;;;;;7.70;99.90;;;;;;5023681;28;20321;-69
2020/12/21 10:21:05;;;;;;;;;;;7.70;99.90;;;;;;5028750;28;19921;-68
2020/12/21 10:23:31;;;;;;;;;;;7.70;99.90;;;;;;5018289;28;19991;-68
2020/12/21 10:26:01;;;;;;;;;;;7.80;99.90;;;;;;5025684;28;19922;-68
2020/12/21 10:28:28;;;;;;;;;;;7.80;99.90;;;;;;5029562;28;20276;-68
2020/12/21 10:30:54;;;;;;;;;;;7.80;99.90;;;;;;5022475;28;20380;-68
2020/12/21 10:33:20;;;;;;;;;;;7.80;99.90;;;;;;5024556;28;20334;-68
2020/12/21 10:35:46;;;;;;;;;;;7.80;99.90;;;;;;5032828;28;19968;-68
2020/12/21 10:38:13;;;;;;;;;;;7.80;99.90;;;;;;5024625;28;20022;-68
2020/12/21 10:40:40;;;;;;;;;;;7.80;99.90;;;;;;5025243;28;19960;-68
2020/12/21 10:43:06;;;;;;;;;;;7.90;99.90;;;;;;5026548;28;19921;-68
2020/12/21 10:45:34;;;;;;;;;;;7.90;99.90;;;;;;5028123;28;19922;-68
2020/12/21 10:48:01;;;;;;;;;;;7.90;99.90;;;;;;5028610;28;19967;-68
2020/12/21 10:50:27;;;;;;;;;;;7.90;99.90;;;;;;5022642;28;19975;-68
2020/12/21 10:52:53;;;;;;;;;;;7.90;99.90;;;;;;5024386;28;20383;-68
2020/12/21 10:55:19;;;;;;;;;;;7.90;99.90;;;;;;5024941;28;19995;-68
2020/12/21 10:57:46;;;;;;;;;;;7.90;99.90;;;;;;5020746;28;19921;-68
2020/12/21 11:00:12;;;;;;;;;;;7.90;99.90;;;;;;5027265;28;20022;-69
2020/12/21 11:02:39;;;;;;;;;;;7.90;99.90;;;;;;5020298;28;19920;-69
2020/12/21 11:05:05;;;;;;;;;;;7.90;99.90;;;;;;5041072;28;20349;-69
2020/12/21 11:07:32;;;;;;;;;;;7.90;99.90;;;;;;5023557;28;20003;-69
2020/12/21 11:10:09;;;;;;;;;;;7.90;99.90;;;;;;5033225;28;19924;-69
2020/12/21 11:12:36;;;;;;;;;;;8.00;99.90;;;;;;5019553;28;20349;-68
2020/12/21 11:15:03;;;;;;;;;;;8.00;99.90;;;;;;5029603;28;19979;-68
2020/12/21 11:17:29;;;;;;;;;;;8.00;99.90;;;;;;5021210;28;21072;-68
2020/12/21 11:19:55;;;;;;;;;;;8.00;99.90;;;;;;5026297;28;20052;-68
2020/12/21 11:22:22;;;;;;;;;;;8.00;99.90;;;;;;5012794;28;19921;-69
2020/12/21 11:24:48;;;;;;;;;;;8.00;99.90;;;;;;5020629;28;19984;-68
2020/12/21 11:27:17;;;;;;;;;;;8.00;99.90;;;;;;5025792;28;20025;-68
2020/12/21 11:29:43;;;;;;;;;;;8.00;99.90;;;;;;5038550;28;19963;-69
2020/12/21 11:32:19;;;;;;;;;;;8.00;99.90;;;;;;5020042;28;20337;-68
2020/12/21 11:34:46;;;;;;;;;;;8.00;99.90;;;;;;5019470;28;19972;-68
2020/12/21 11:37:12;;;;;;;;;;;8.00;99.90;;;;;;5020831;28;19921;-69
2020/12/21 11:39:39;;;;;;;;;;;8.00;99.90;;;;;;5043858;28;20323;-69
2020/12/21 11:42:08;;;;;;;;;;;8.10;99.90;;;;;;5029244;28;20012;-68
2020/12/21 11:44:35;;;;;;;;;;;8.10;99.90;;;;;;5020227;28;19935;-69
2020/12/21 11:47:07;;;;;;;;;;;8.10;99.90;;;;;;5023730;28;19995;-68
2020/12/21 11:49:34;;;;;;;;;;;8.10;99.90;;;;;;5026402;28;20281;-69
2020/12/21 11:52:00;;;;;;;;;;;8.10;99.90;;;;;;5028317;28;20326;-69
2020/12/21 11:54:27;;;;;;;;;;;8.10;99.90;;;;;;5018869;28;20014;-69
2020/12/21 11:56:56;;;;;;;;;;;8.00;99.90;;;;;;5024500;28;19959;-69
2020/12/21 11:59:23;;;;;;;;;;;8.00;99.90;;;;;;5023284;28;20402;-69
2020/12/21 12:02:00;;;;;;;;;;;8.00;99.90;;;;;;5023777;28;19929;-69
2020/12/21 12:04:31;;;;;;;;;;;8.00;99.90;;;;;;5017786;28;19960;-68
2020/12/21 12:07:00;;;;;;;;;;;8.00;99.90;;;;;;5027771;28;19972;-68
2020/12/21 12:09:27;;;;;;;;;;;8.00;99.90;;;;;;5025291;28;19952;-69
2020/12/21 12:11:53;;;;;;;;;;;8.00;99.90;;;;;;5023985;28;19930;-69
2020/12/21 12:14:20;;;;;;;;;;;8.00;99.90;;;;;;5018970;28;20070;-69
2020/12/21 12:16:47;;;;;;;;;;;8.00;99.90;;;;;;5028258;28;19922;-68
2020/12/21 12:19:13;;;;;;;;;;;8.10;99.90;;;;;;5019997;28;20339;-69
2020/12/21 12:21:39;;;;;;;;;;;8.00;99.90;;;;;;5024508;28;19980;-69
2020/12/21 12:24:05;;;;;;;;;;;8.10;99.90;;;;;;5026386;28;19960;-68
2020/12/21 12:26:32;;;;;;;;;;;8.10;99.90;;;;;;5020188;28;19967;-69
2020/12/21 12:28:58;;;;;;;;;;;8.10;99.90;;;;;;5025709;28;20097;-69
2020/12/21 12:31:24;;;;;;;;;;;8.10;99.90;;;;;;5025414;28;20423;-69
2020/12/21 12:33:51;;;;;;;;;;;8.10;99.90;;;;;;5021402;28;20413;-68
2020/12/21 12:36:21;;;;;;;;;;;8.10;99.90;;;;;;5026771;28;20036;-69
2020/12/21 12:38:47;;;;;;;;;;;8.10;99.90;;;;;;5018795;28;20024;-69
2020/12/21 12:41:14;;;;;;;;;;;8.10;99.90;;;;;;5023320;28;19953;-69
2020/12/21 12:43:40;;;;;;;;;;;8.10;99.90;;;;;;5024915;28;19932;-69
2020/12/21 12:46:07;;;;;;;;;;;8.20;99.90;;;;;;5019719;28;19979;-69
2020/12/21 12:48:34;;;;;;;;;;;8.20;99.90;;;;;;5016045;28;19924;-69
2020/12/21 12:51:01;;;;;;;;;;;8.20;99.90;;;;;;5026027;28;20012;-69
2020/12/21 12:53:27;;;;;;;;;;;8.20;99.90;;;;;;5024431;28;19922;-69
2020/12/21 12:55:54;;;;;;;;;;;8.20;99.90;;;;;;5026322;28;19921;-69
2020/12/21 12:58:20;;;;;;;;;;;8.30;99.90;;;;;;5019508;28;20337;-69
2020/12/21 13:00:46;;;;;;;;;;;8.30;99.90;;;;;;5026005;28;20340;-70
2020/12/21 13:03:13;;;;;;;;;;;8.30;99.90;;;;;;5021714;28;19952;-71
2020/12/21 13:05:39;;;;;;;;;;;8.30;99.90;;;;;;5021193;28;20457;-69
2020/12/21 13:08:05;;;;;;;;;;;8.30;99.90;;;;;;5030881;28;19924;-69
2020/12/21 13:10:32;;;;;;;;;;;8.30;99.90;;;;;;5028042;28;19972;-68
2020/12/21 13:12:58;;;;;;;;;;;8.30;99.90;;;;;;5018874;28;19921;-69
2020/12/21 13:15:25;;;;;;;;;;;8.30;99.90;;;;;;5026272;28;19963;-69
2020/12/21 13:17:52;;;;;;;;;;;8.30;99.90;;;;;;5019392;28;20256;-69
2020/12/21 13:20:18;;;;;;;;;;;8.30;99.90;;;;;;5028471;28;20007;-69
2020/12/21 13:22:45;;;;;;;;;;;8.30;99.90;;;;;;5021725;28;20003;-69
2020/12/21 13:25:11;;;;;;;;;;;8.30;99.90;;;;;;5020318;28;19968;-68
2020/12/21 13:27:38;;;;;;;;;;;8.30;99.90;;;;;;5026280;28;20012;-69